sensor_id;sensor_type;location;lat;lon;timestamp;P1;durP1;ratioP1;P2;durP2;ratioP2
18887;SDS011;9576;47.792;9.628;2023-06-22T00:01:26;28.95;;;6.55;;
18887;SDS011;9576;47.792;9.628;2023-06-22T00:04:28;16.10;;;6.75;;
18887;SDS011;9576;47.792;9.628;2023-06-22T00:07:31;24.38;;;6.10;;
18887;SDS011;9576;47.792;9.628;2023-06-22T00:10:33;21.70;;;6.78;;
18887;SDS011;9576;47.792;9.628;2023-06-22T00:13:35;18.83;;;6.88;;
18887;SDS011;9576;47.792;9.628;2023-06-22T00:16:37;20.83;;;6.35;;
18887;SDS011;9576;47.792;9.628;2023-06-22T00:19:39;23.75;;;7.57;;
18887;SDS011;9576;47.792;9.628;2023-06-22T00:22:42;25.20;;;8.30;;
18887;SDS011;9576;47.792;9.628;2023-06-22T00:25:44;12.82;;;6.43;;
18887;SDS011;9576;47.792;9.628;2023-06-22T00:28:46;14.07;;;6.28;;
18887;SDS011;9576;47.792;9.628;2023-06-22T00:31:48;17.00;;;6.90;;
18887;SDS011;9576;47.792;9.628;2023-06-22T00:34:50;21.83;;;7.28;;
18887;SDS011;9576;47.792;9.628;2023-06-22T00:37:53;26.77;;;7.30;;
18887;SDS011;9576;47.792;9.628;2023-06-22T00:41:00;20.13;;;6.72;;
18887;SDS011;9576;47.792;9.628;2023-06-22T00:44:02;22.83;;;7.45;;
18887;SDS011;9576;47.792;9.628;2023-06-22T00:47:04;20.08;;;7.38;;
18887;SDS011;9576;47.792;9.628;2023-06-22T00:50:07;25.65;;;7.18;;
18887;SDS011;9576;47.792;9.628;2023-06-22T00:53:11;21.73;;;7.03;;
18887;SDS011;9576;47.792;9.628;2023-06-22T00:56:13;20.17;;;6.93;;
18887;SDS011;9576;47.792;9.628;2023-06-22T00:59:15;19.52;;;7.35;;
18887;SDS011;9576;47.792;9.628;2023-06-22T01:02:17;17.88;;;6.65;;
18887;SDS011;9576;47.792;9.628;2023-06-22T01:05:20;23.67;;;7.32;;
18887;SDS011;9576;47.792;9.628;2023-06-22T01:08:26;18.50;;;7.00;;
18887;SDS011;9576;47.792;9.628;2023-06-22T01:11:38;14.60;;;6.75;;
18887;SDS011;9576;47.792;9.628;2023-06-22T01:14:47;19.40;;;7.65;;
18887;SDS011;9576;47.792;9.628;2023-06-22T01:17:54;22.20;;;6.68;;
18887;SDS011;9576;47.792;9.628;2023-06-22T01:20:59;13.07;;;6.10;;
18887;SDS011;9576;47.792;9.628;2023-06-22T01:24:10;19.63;;;6.78;;
18887;SDS011;9576;47.792;9.628;2023-06-22T01:27:18;31.98;;;7.68;;
18887;SDS011;9576;47.792;9.628;2023-06-22T01:30:34;17.85;;;6.38;;
18887;SDS011;9576;47.792;9.628;2023-06-22T01:33:39;16.70;;;6.88;;
18887;SDS011;9576;47.792;9.628;2023-06-22T01:36:43;18.00;;;7.15;;
18887;SDS011;9576;47.792;9.628;2023-06-22T01:39:46;29.58;;;6.53;;
18887;SDS011;9576;47.792;9.628;2023-06-22T01:42:49;19.02;;;7.35;;
18887;SDS011;9576;47.792;9.628;2023-06-22T01:45:53;20.30;;;7.60;;
18887;SDS011;9576;47.792;9.628;2023-06-22T01:48:55;26.92;;;6.95;;
18887;SDS011;9576;47.792;9.628;2023-06-22T01:51:58;25.38;;;7.55;;
18887;SDS011;9576;47.792;9.628;2023-06-22T01:55:00;17.10;;;6.78;;
18887;SDS011;9576;47.792;9.628;2023-06-22T01:58:02;21.77;;;7.65;;
18887;SDS011;9576;47.792;9.628;2023-06-22T02:01:06;20.85;;;6.97;;
18887;SDS011;9576;47.792;9.628;2023-06-22T02:04:12;22.15;;;8.00;;
18887;SDS011;9576;47.792;9.628;2023-06-22T02:07:17;20.00;;;6.88;;
18887;SDS011;9576;47.792;9.628;2023-06-22T02:10:23;18.20;;;7.88;;
18887;SDS011;9576;47.792;9.628;2023-06-22T02:13:26;13.30;;;6.63;;
18887;SDS011;9576;47.792;9.628;2023-06-22T02:16:31;23.77;;;7.32;;
18887;SDS011;9576;47.792;9.628;2023-06-22T02:19:35;22.67;;;6.82;;
18887;SDS011;9576;47.792;9.628;2023-06-22T02:22:37;25.92;;;7.85;;
18887;SDS011;9576;47.792;9.628;2023-06-22T02:25:39;18.90;;;6.90;;
18887;SDS011;9576;47.792;9.628;2023-06-22T02:28:44;20.15;;;7.75;;
18887;SDS011;9576;47.792;9.628;2023-06-22T02:31:48;23.00;;;7.40;;
18887;SDS011;9576;47.792;9.628;2023-06-22T02:34:50;22.23;;;7.50;;
18887;SDS011;9576;47.792;9.628;2023-06-22T02:37:54;26.33;;;7.72;;
18887;SDS011;9576;47.792;9.628;2023-06-22T02:40:56;29.75;;;8.00;;
18887;SDS011;9576;47.792;9.628;2023-06-22T02:43:58;15.32;;;7.18;;
18887;SDS011;9576;47.792;9.628;2023-06-22T02:47:01;19.00;;;7.65;;
18887;SDS011;9576;47.792;9.628;2023-06-22T02:50:03;18.70;;;7.57;;
18887;SDS011;9576;47.792;9.628;2023-06-22T02:53:06;27.55;;;8.27;;
18887;SDS011;9576;47.792;9.628;2023-06-22T02:56:07;23.27;;;9.18;;
18887;SDS011;9576;47.792;9.628;2023-06-22T02:59:09;16.35;;;7.75;;
18887;SDS011;9576;47.792;9.628;2023-06-22T03:02:13;30.13;;;8.43;;
18887;SDS011;9576;47.792;9.628;2023-06-22T03:05:15;17.92;;;7.13;;
18887;SDS011;9576;47.792;9.628;2023-06-22T03:08:18;25.10;;;8.07;;
18887;SDS011;9576;47.792;9.628;2023-06-22T03:11:20;32.08;;;8.25;;
18887;SDS011;9576;47.792;9.628;2023-06-22T03:14:22;17.85;;;7.40;;
18887;SDS011;9576;47.792;9.628;2023-06-22T03:17:26;21.60;;;7.72;;
18887;SDS011;9576;47.792;9.628;2023-06-22T03:20:27;20.33;;;7.78;;
18887;SDS011;9576;47.792;9.628;2023-06-22T03:23:33;17.00;;;8.15;;
18887;SDS011;9576;47.792;9.628;2023-06-22T03:26:35;22.80;;;7.28;;
18887;SDS011;9576;47.792;9.628;2023-06-22T03:29:37;23.45;;;7.80;;
18887;SDS011;9576;47.792;9.628;2023-06-22T03:32:40;16.17;;;6.97;;
18887;SDS011;9576;47.792;9.628;2023-06-22T03:35:43;25.23;;;7.95;;
18887;SDS011;9576;47.792;9.628;2023-06-22T03:38:45;20.08;;;7.85;;
18887;SDS011;9576;47.792;9.628;2023-06-22T03:41:47;26.38;;;8.00;;
18887;SDS011;9576;47.792;9.628;2023-06-22T03:44:49;16.58;;;7.75;;
18887;SDS011;9576;47.792;9.628;2023-06-22T03:47:52;20.20;;;8.20;;
18887;SDS011;9576;47.792;9.628;2023-06-22T03:50:54;16.38;;;7.63;;
18887;SDS011;9576;47.792;9.628;2023-06-22T03:53:56;19.85;;;8.75;;
18887;SDS011;9576;47.792;9.628;2023-06-22T03:56:58;24.15;;;8.57;;
18887;SDS011;9576;47.792;9.628;2023-06-22T04:00:00;19.25;;;7.65;;
18887;SDS011;9576;47.792;9.628;2023-06-22T04:03:04;33.17;;;9.95;;
18887;SDS011;9576;47.792;9.628;2023-06-22T04:06:07;21.52;;;8.23;;
18887;SDS011;9576;47.792;9.628;2023-06-22T04:09:09;27.23;;;8.18;;
18887;SDS011;9576;47.792;9.628;2023-06-22T04:12:11;21.25;;;9.32;;
18887;SDS011;9576;47.792;9.628;2023-06-22T04:15:13;21.05;;;9.48;;
18887;SDS011;9576;47.792;9.628;2023-06-22T04:18:16;34.35;;;9.32;;
18887;SDS011;9576;47.792;9.628;2023-06-22T04:21:18;18.92;;;9.63;;
18887;SDS011;9576;47.792;9.628;2023-06-22T04:24:20;30.38;;;10.50;;
18887;SDS011;9576;47.792;9.628;2023-06-22T04:27:22;27.80;;;9.63;;
18887;SDS011;9576;47.792;9.628;2023-06-22T04:30:24;19.90;;;8.98;;
18887;SDS011;9576;47.792;9.628;2023-06-22T04:33:28;23.50;;;9.88;;
18887;SDS011;9576;47.792;9.628;2023-06-22T04:36:30;22.02;;;9.00;;
18887;SDS011;9576;47.792;9.628;2023-06-22T04:39:37;25.83;;;10.20;;
18887;SDS011;9576;47.792;9.628;2023-06-22T04:42:38;24.58;;;9.98;;
18887;SDS011;9576;47.792;9.628;2023-06-22T04:45:40;21.40;;;9.43;;
18887;SDS011;9576;47.792;9.628;2023-06-22T04:48:44;30.10;;;10.18;;
18887;SDS011;9576;47.792;9.628;2023-06-22T04:51:46;30.75;;;11.30;;
18887;SDS011;9576;47.792;9.628;2023-06-22T04:54:47;22.08;;;9.90;;
18887;SDS011;9576;47.792;9.628;2023-06-22T04:57:55;22.58;;;10.80;;
18887;SDS011;9576;47.792;9.628;2023-06-22T05:01:04;20.13;;;10.10;;
18887;SDS011;9576;47.792;9.628;2023-06-22T05:04:07;24.05;;;10.27;;
18887;SDS011;9576;47.792;9.628;2023-06-22T05:07:09;22.90;;;10.85;;
18887;SDS011;9576;47.792;9.628;2023-06-22T05:10:11;23.00;;;9.60;;
18887;SDS011;9576;47.792;9.628;2023-06-22T05:13:13;22.80;;;10.20;;
18887;SDS011;9576;47.792;9.628;2023-06-22T05:16:15;25.67;;;9.75;;
18887;SDS011;9576;47.792;9.628;2023-06-22T05:19:19;19.00;;;9.57;;
18887;SDS011;9576;47.792;9.628;2023-06-22T05:22:21;24.92;;;8.52;;
18887;SDS011;9576;47.792;9.628;2023-06-22T05:25:23;16.88;;;9.10;;
18887;SDS011;9576;47.792;9.628;2023-06-22T05:28:25;30.98;;;10.00;;
18887;SDS011;9576;47.792;9.628;2023-06-22T05:31:27;17.88;;;9.85;;
18887;SDS011;9576;47.792;9.628;2023-06-22T05:34:30;26.20;;;8.95;;
18887;SDS011;9576;47.792;9.628;2023-06-22T05:37:32;24.20;;;9.88;;
18887;SDS011;9576;47.792;9.628;2023-06-22T05:40:34;27.52;;;9.70;;
18887;SDS011;9576;47.792;9.628;2023-06-22T05:43:36;17.35;;;9.45;;
18887;SDS011;9576;47.792;9.628;2023-06-22T05:46:40;23.40;;;9.15;;
18887;SDS011;9576;47.792;9.628;2023-06-22T05:49:45;36.13;;;9.18;;
18887;SDS011;9576;47.792;9.628;2023-06-22T05:52:47;23.48;;;9.45;;
18887;SDS011;9576;47.792;9.628;2023-06-22T05:55:49;14.45;;;8.43;;
18887;SDS011;9576;47.792;9.628;2023-06-22T05:58:51;32.90;;;9.15;;
18887;SDS011;9576;47.792;9.628;2023-06-22T06:01:53;21.95;;;9.05;;
18887;SDS011;9576;47.792;9.628;2023-06-22T06:04:56;17.35;;;8.68;;
18887;SDS011;9576;47.792;9.628;2023-06-22T06:07:58;24.85;;;9.02;;
18887;SDS011;9576;47.792;9.628;2023-06-22T06:11:00;17.70;;;8.05;;
18887;SDS011;9576;47.792;9.628;2023-06-22T06:14:02;25.60;;;11.00;;
18887;SDS011;9576;47.792;9.628;2023-06-22T06:17:04;19.77;;;7.63;;
18887;SDS011;9576;47.792;9.628;2023-06-22T06:20:09;22.15;;;8.55;;
18887;SDS011;9576;47.792;9.628;2023-06-22T06:23:12;19.45;;;9.38;;
18887;SDS011;9576;47.792;9.628;2023-06-22T06:26:14;20.92;;;9.45;;
18887;SDS011;9576;47.792;9.628;2023-06-22T06:29:17;23.15;;;9.13;;
18887;SDS011;9576;47.792;9.628;2023-06-22T06:32:19;19.98;;;10.02;;
18887;SDS011;9576;47.792;9.628;2023-06-22T06:35:22;19.35;;;7.88;;
18887;SDS011;9576;47.792;9.628;2023-06-22T06:38:24;13.63;;;7.80;;
18887;SDS011;9576;47.792;9.628;2023-06-22T06:41:26;26.15;;;8.88;;
18887;SDS011;9576;47.792;9.628;2023-06-22T06:44:28;26.25;;;9.50;;
18887;SDS011;9576;47.792;9.628;2023-06-22T06:47:30;24.48;;;8.23;;
18887;SDS011;9576;47.792;9.628;2023-06-22T06:50:33;14.73;;;7.78;;
18887;SDS011;9576;47.792;9.628;2023-06-22T06:53:35;16.58;;;8.13;;
18887;SDS011;9576;47.792;9.628;2023-06-22T06:56:37;18.33;;;8.68;;
18887;SDS011;9576;47.792;9.628;2023-06-22T06:59:39;25.63;;;8.60;;
18887;SDS011;9576;47.792;9.628;2023-06-22T07:02:42;19.85;;;7.70;;
18887;SDS011;9576;47.792;9.628;2023-06-22T07:05:46;19.25;;;7.70;;
18887;SDS011;9576;47.792;9.628;2023-06-22T07:08:47;30.65;;;8.77;;
18887;SDS011;9576;47.792;9.628;2023-06-22T07:11:49;23.08;;;8.32;;
18887;SDS011;9576;47.792;9.628;2023-06-22T07:14:51;21.77;;;8.60;;
18887;SDS011;9576;47.792;9.628;2023-06-22T07:17:53;18.50;;;8.82;;
18887;SDS011;9576;47.792;9.628;2023-06-22T07:20:57;18.20;;;8.18;;
18887;SDS011;9576;47.792;9.628;2023-06-22T07:23:58;24.88;;;8.98;;
18887;SDS011;9576;47.792;9.628;2023-06-22T07:27:00;22.27;;;9.25;;
18887;SDS011;9576;47.792;9.628;2023-06-22T07:30:04;21.80;;;8.80;;
18887;SDS011;9576;47.792;9.628;2023-06-22T07:33:07;16.83;;;8.50;;
18887;SDS011;9576;47.792;9.628;2023-06-22T07:36:10;17.70;;;7.65;;
18887;SDS011;9576;47.792;9.628;2023-06-22T07:39:12;20.40;;;8.25;;
18887;SDS011;9576;47.792;9.628;2023-06-22T07:42:14;27.42;;;8.68;;
18887;SDS011;9576;47.792;9.628;2023-06-22T07:45:18;21.40;;;8.75;;
18887;SDS011;9576;47.792;9.628;2023-06-22T07:48:21;21.00;;;10.45;;
18887;SDS011;9576;47.792;9.628;2023-06-22T07:51:24;13.43;;;7.68;;
18887;SDS011;9576;47.792;9.628;2023-06-22T07:54:26;22.92;;;9.32;;
18887;SDS011;9576;47.792;9.628;2023-06-22T07:57:28;18.25;;;8.90;;
18887;SDS011;9576;47.792;9.628;2023-06-22T08:00:33;19.65;;;8.88;;
18887;SDS011;9576;47.792;9.628;2023-06-22T08:03:35;30.05;;;8.85;;
18887;SDS011;9576;47.792;9.628;2023-06-22T08:06:39;21.73;;;9.82;;
18887;SDS011;9576;47.792;9.628;2023-06-22T08:09:45;24.35;;;8.07;;
18887;SDS011;9576;47.792;9.628;2023-06-22T08:12:48;25.63;;;8.25;;
18887;SDS011;9576;47.792;9.628;2023-06-22T08:15:50;27.63;;;8.48;;
18887;SDS011;9576;47.792;9.628;2023-06-22T08:18:52;26.33;;;8.27;;
18887;SDS011;9576;47.792;9.628;2023-06-22T08:21:56;15.50;;;8.60;;
18887;SDS011;9576;47.792;9.628;2023-06-22T08:24:58;27.73;;;8.15;;
18887;SDS011;9576;47.792;9.628;2023-06-22T08:28:00;15.77;;;8.00;;
18887;SDS011;9576;47.792;9.628;2023-06-22T08:31:02;20.33;;;9.13;;
18887;SDS011;9576;47.792;9.628;2023-06-22T08:34:04;17.80;;;8.32;;
18887;SDS011;9576;47.792;9.628;2023-06-22T08:37:07;22.95;;;9.27;;
18887;SDS011;9576;47.792;9.628;2023-06-22T08:40:09;18.02;;;8.57;;
18887;SDS011;9576;47.792;9.628;2023-06-22T08:43:12;33.53;;;8.10;;
18887;SDS011;9576;47.792;9.628;2023-06-22T08:46:14;22.27;;;7.80;;
18887;SDS011;9576;47.792;9.628;2023-06-22T08:49:20;16.55;;;7.20;;
18887;SDS011;9576;47.792;9.628;2023-06-22T08:52:24;20.95;;;7.53;;
18887;SDS011;9576;47.792;9.628;2023-06-22T08:55:26;31.52;;;9.32;;
18887;SDS011;9576;47.792;9.628;2023-06-22T08:58:28;43.47;;;9.10;;
18887;SDS011;9576;47.792;9.628;2023-06-22T09:01:30;33.17;;;8.35;;
18887;SDS011;9576;47.792;9.628;2023-06-22T09:04:31;25.58;;;7.78;;
18887;SDS011;9576;47.792;9.628;2023-06-22T09:07:36;21.50;;;7.47;;
18887;SDS011;9576;47.792;9.628;2023-06-22T09:10:38;24.63;;;8.15;;
18887;SDS011;9576;47.792;9.628;2023-06-22T09:13:39;31.08;;;7.88;;
18887;SDS011;9576;47.792;9.628;2023-06-22T09:16:42;19.20;;;7.63;;
18887;SDS011;9576;47.792;9.628;2023-06-22T09:19:44;21.73;;;7.97;;
18887;SDS011;9576;47.792;9.628;2023-06-22T09:22:47;16.58;;;6.45;;
18887;SDS011;9576;47.792;9.628;2023-06-22T09:25:50;18.60;;;8.00;;
18887;SDS011;9576;47.792;9.628;2023-06-22T09:28:52;20.92;;;7.25;;
18887;SDS011;9576;47.792;9.628;2023-06-22T09:31:53;13.90;;;7.13;;
18887;SDS011;9576;47.792;9.628;2023-06-22T09:34:55;21.45;;;8.77;;
18887;SDS011;9576;47.792;9.628;2023-06-22T09:37:59;21.65;;;7.90;;
18887;SDS011;9576;47.792;9.628;2023-06-22T09:41:01;18.02;;;8.13;;
18887;SDS011;9576;47.792;9.628;2023-06-22T09:44:03;28.92;;;8.57;;
18887;SDS011;9576;47.792;9.628;2023-06-22T09:47:05;19.63;;;7.63;;
18887;SDS011;9576;47.792;9.628;2023-06-22T09:50:08;18.30;;;6.90;;
18887;SDS011;9576;47.792;9.628;2023-06-22T09:53:12;28.23;;;7.85;;
18887;SDS011;9576;47.792;9.628;2023-06-22T09:56:13;20.45;;;7.75;;
18887;SDS011;9576;47.792;9.628;2023-06-22T09:59:15;13.85;;;6.25;;
18887;SDS011;9576;47.792;9.628;2023-06-22T10:02:17;24.60;;;8.18;;
18887;SDS011;9576;47.792;9.628;2023-06-22T10:05:19;19.73;;;7.55;;
18887;SDS011;9576;47.792;9.628;2023-06-22T10:08:23;39.63;;;7.90;;
18887;SDS011;9576;47.792;9.628;2023-06-22T10:11:24;32.88;;;7.32;;
18887;SDS011;9576;47.792;9.628;2023-06-22T10:14:30;27.00;;;7.18;;
18887;SDS011;9576;47.792;9.628;2023-06-22T10:17:32;14.18;;;6.97;;
18887;SDS011;9576;47.792;9.628;2023-06-22T10:20:34;25.60;;;7.43;;
18887;SDS011;9576;47.792;9.628;2023-06-22T10:23:38;28.02;;;7.35;;
18887;SDS011;9576;47.792;9.628;2023-06-22T10:26:40;18.47;;;6.27;;
18887;SDS011;9576;47.792;9.628;2023-06-22T10:29:42;25.75;;;7.20;;
18887;SDS011;9576;47.792;9.628;2023-06-22T10:32:45;17.92;;;6.78;;
18887;SDS011;9576;47.792;9.628;2023-06-22T10:35:46;19.00;;;6.13;;
18887;SDS011;9576;47.792;9.628;2023-06-22T10:38:50;16.33;;;6.40;;
18887;SDS011;9576;47.792;9.628;2023-06-22T10:41:53;25.80;;;6.65;;
18887;SDS011;9576;47.792;9.628;2023-06-22T10:44:56;11.85;;;5.90;;
18887;SDS011;9576;47.792;9.628;2023-06-22T10:47:58;28.67;;;7.05;;
18887;SDS011;9576;47.792;9.628;2023-06-22T10:50:59;15.18;;;6.22;;
18887;SDS011;9576;47.792;9.628;2023-06-22T10:54:03;29.08;;;7.93;;
18887;SDS011;9576;47.792;9.628;2023-06-22T10:57:05;19.67;;;5.77;;
18887;SDS011;9576;47.792;9.628;2023-06-22T11:00:08;17.40;;;5.93;;
18887;SDS011;9576;47.792;9.628;2023-06-22T11:03:11;23.42;;;5.57;;
18887;SDS011;9576;47.792;9.628;2023-06-22T11:06:14;22.70;;;6.75;;
18887;SDS011;9576;47.792;9.628;2023-06-22T11:09:24;20.20;;;5.53;;
18887;SDS011;9576;47.792;9.628;2023-06-22T11:12:25;22.35;;;5.95;;
18887;SDS011;9576;47.792;9.628;2023-06-22T11:15:27;24.83;;;6.38;;
18887;SDS011;9576;47.792;9.628;2023-06-22T11:18:30;23.35;;;6.28;;
18887;SDS011;9576;47.792;9.628;2023-06-22T11:21:33;25.27;;;6.50;;
18887;SDS011;9576;47.792;9.628;2023-06-22T11:24:37;19.88;;;6.22;;
18887;SDS011;9576;47.792;9.628;2023-06-22T11:27:39;20.65;;;6.47;;
18887;SDS011;9576;47.792;9.628;2023-06-22T11:30:41;23.40;;;6.18;;
18887;SDS011;9576;47.792;9.628;2023-06-22T11:33:43;17.85;;;5.85;;
18887;SDS011;9576;47.792;9.628;2023-06-22T11:36:45;25.05;;;5.97;;
18887;SDS011;9576;47.792;9.628;2023-06-22T11:39:49;20.98;;;5.35;;
18887;SDS011;9576;47.792;9.628;2023-06-22T11:42:52;29.40;;;6.53;;
18887;SDS011;9576;47.792;9.628;2023-06-22T11:45:53;14.38;;;5.30;;
18887;SDS011;9576;47.792;9.628;2023-06-22T11:48:56;19.15;;;6.18;;
18887;SDS011;9576;47.792;9.628;2023-06-22T11:51:58;20.08;;;5.88;;
18887;SDS011;9576;47.792;9.628;2023-06-22T11:55:01;32.60;;;6.75;;
18887;SDS011;9576;47.792;9.628;2023-06-22T11:58:05;17.08;;;5.90;;
18887;SDS011;9576;47.792;9.628;2023-06-22T12:01:08;23.02;;;5.57;;
18887;SDS011;9576;47.792;9.628;2023-06-22T12:04:10;26.98;;;6.15;;
18887;SDS011;9576;47.792;9.628;2023-06-22T12:07:12;17.35;;;5.40;;
18887;SDS011;9576;47.792;9.628;2023-06-22T12:10:15;24.75;;;5.57;;
18887;SDS011;9576;47.792;9.628;2023-06-22T12:13:17;21.65;;;5.70;;
18887;SDS011;9576;47.792;9.628;2023-06-22T12:16:19;15.55;;;6.20;;
18887;SDS011;9576;47.792;9.628;2023-06-22T12:19:21;14.35;;;6.53;;
18887;SDS011;9576;47.792;9.628;2023-06-22T12:22:23;35.30;;;7.05;;
18887;SDS011;9576;47.792;9.628;2023-06-22T12:25:27;31.67;;;6.00;;
18887;SDS011;9576;47.792;9.628;2023-06-22T12:28:28;30.48;;;6.25;;
18887;SDS011;9576;47.792;9.628;2023-06-22T12:31:30;14.20;;;5.22;;
18887;SDS011;9576;47.792;9.628;2023-06-22T12:34:32;30.27;;;5.88;;
18887;SDS011;9576;47.792;9.628;2023-06-22T12:37:34;21.38;;;5.25;;
18887;SDS011;9576;47.792;9.628;2023-06-22T12:40:37;20.92;;;5.95;;
18887;SDS011;9576;47.792;9.628;2023-06-22T12:43:40;16.45;;;6.03;;
18887;SDS011;9576;47.792;9.628;2023-06-22T12:46:42;24.73;;;4.68;;
18887;SDS011;9576;47.792;9.628;2023-06-22T12:49:43;20.05;;;5.63;;
18887;SDS011;9576;47.792;9.628;2023-06-22T12:52:45;16.10;;;4.80;;
18887;SDS011;9576;47.792;9.628;2023-06-22T12:55:49;29.35;;;5.95;;
18887;SDS011;9576;47.792;9.628;2023-06-22T12:58:50;23.30;;;5.15;;
18887;SDS011;9576;47.792;9.628;2023-06-22T13:01:52;22.75;;;6.43;;
18887;SDS011;9576;47.792;9.628;2023-06-22T13:04:55;22.27;;;6.05;;
18887;SDS011;9576;47.792;9.628;2023-06-22T13:07:57;23.70;;;6.40;;
18887;SDS011;9576;47.792;9.628;2023-06-22T13:11:00;13.60;;;5.22;;
18887;SDS011;9576;47.792;9.628;2023-06-22T13:14:02;26.92;;;6.20;;
18887;SDS011;9576;47.792;9.628;2023-06-22T13:17:04;21.20;;;6.90;;
18887;SDS011;9576;47.792;9.628;2023-06-22T13:20:06;18.42;;;6.30;;
18887;SDS011;9576;47.792;9.628;2023-06-22T13:23:09;22.15;;;6.43;;
18887;SDS011;9576;47.792;9.628;2023-06-22T13:26:12;40.58;;;6.85;;
18887;SDS011;9576;47.792;9.628;2023-06-22T13:29:14;18.95;;;6.28;;
18887;SDS011;9576;47.792;9.628;2023-06-22T13:32:16;23.45;;;6.13;;
18887;SDS011;9576;47.792;9.628;2023-06-22T13:35:18;28.83;;;6.55;;
18887;SDS011;9576;47.792;9.628;2023-06-22T13:38:20;29.00;;;5.85;;
18887;SDS011;9576;47.792;9.628;2023-06-22T13:41:23;18.67;;;5.78;;
18887;SDS011;9576;47.792;9.628;2023-06-22T13:44:25;14.27;;;5.57;;
18887;SDS011;9576;47.792;9.628;2023-06-22T13:47:29;17.90;;;6.40;;
18887;SDS011;9576;47.792;9.628;2023-06-22T13:50:31;39.33;;;6.30;;
18887;SDS011;9576;47.792;9.628;2023-06-22T13:53:33;23.13;;;6.15;;
18887;SDS011;9576;47.792;9.628;2023-06-22T13:56:36;21.52;;;4.82;;
18887;SDS011;9576;47.792;9.628;2023-06-22T13:59:38;31.15;;;6.47;;
18887;SDS011;9576;47.792;9.628;2023-06-22T14:02:40;19.23;;;5.65;;
18887;SDS011;9576;47.792;9.628;2023-06-22T14:05:42;21.13;;;6.30;;
18887;SDS011;9576;47.792;9.628;2023-06-22T14:08:44;25.67;;;5.30;;
18887;SDS011;9576;47.792;9.628;2023-06-22T14:11:47;16.25;;;6.07;;
18887;SDS011;9576;47.792;9.628;2023-06-22T14:14:49;15.25;;;5.28;;
18887;SDS011;9576;47.792;9.628;2023-06-22T14:17:51;15.82;;;5.45;;
18887;SDS011;9576;47.792;9.628;2023-06-22T14:20:54;23.88;;;6.20;;
18887;SDS011;9576;47.792;9.628;2023-06-22T14:23:55;22.88;;;6.07;;
18887;SDS011;9576;47.792;9.628;2023-06-22T14:26:59;18.95;;;5.45;;
18887;SDS011;9576;47.792;9.628;2023-06-22T14:30:03;16.77;;;5.53;;
18887;SDS011;9576;47.792;9.628;2023-06-22T14:33:06;20.25;;;5.85;;
18887;SDS011;9576;47.792;9.628;2023-06-22T14:36:08;28.65;;;6.07;;
18887;SDS011;9576;47.792;9.628;2023-06-22T14:39:11;37.55;;;7.10;;
18887;SDS011;9576;47.792;9.628;2023-06-22T14:42:14;22.13;;;6.00;;
18887;SDS011;9576;47.792;9.628;2023-06-22T14:45:16;17.75;;;5.25;;
18887;SDS011;9576;47.792;9.628;2023-06-22T14:48:18;15.57;;;5.90;;
18887;SDS011;9576;47.792;9.628;2023-06-22T14:51:20;25.23;;;6.43;;
18887;SDS011;9576;47.792;9.628;2023-06-22T14:54:22;30.83;;;6.80;;
18887;SDS011;9576;47.792;9.628;2023-06-22T14:57:25;17.20;;;6.38;;
18887;SDS011;9576;47.792;9.628;2023-06-22T15:00:27;15.90;;;6.50;;
18887;SDS011;9576;47.792;9.628;2023-06-22T15:03:29;27.55;;;6.95;;
18887;SDS011;9576;47.792;9.628;2023-06-22T15:06:32;23.25;;;6.88;;
18887;SDS011;9576;47.792;9.628;2023-06-22T15:09:34;16.63;;;8.45;;
18887;SDS011;9576;47.792;9.628;2023-06-22T15:12:40;22.52;;;6.93;;
18887;SDS011;9576;47.792;9.628;2023-06-22T15:15:42;24.17;;;6.47;;
18887;SDS011;9576;47.792;9.628;2023-06-22T15:18:44;24.23;;;6.13;;
18887;SDS011;9576;47.792;9.628;2023-06-22T15:21:47;25.40;;;6.55;;
18887;SDS011;9576;47.792;9.628;2023-06-22T15:24:49;19.02;;;6.05;;
18887;SDS011;9576;47.792;9.628;2023-06-22T15:27:54;20.00;;;6.22;;
18887;SDS011;9576;47.792;9.628;2023-06-22T15:30:56;31.13;;;6.05;;
18887;SDS011;9576;47.792;9.628;2023-06-22T15:33:58;29.13;;;5.15;;
18887;SDS011;9576;47.792;9.628;2023-06-22T15:37:00;24.45;;;5.65;;
18887;SDS011;9576;47.792;9.628;2023-06-22T15:40:03;16.67;;;5.28;;
18887;SDS011;9576;47.792;9.628;2023-06-22T15:43:07;26.90;;;5.45;;
18887;SDS011;9576;47.792;9.628;2023-06-22T15:46:11;25.67;;;4.82;;
18887;SDS011;9576;47.792;9.628;2023-06-22T15:49:13;24.33;;;5.22;;
18887;SDS011;9576;47.792;9.628;2023-06-22T15:52:15;15.15;;;4.93;;
18887;SDS011;9576;47.792;9.628;2023-06-22T15:55:19;32.78;;;6.10;;
18887;SDS011;9576;47.792;9.628;2023-06-22T15:58:22;16.75;;;4.90;;
18887;SDS011;9576;47.792;9.628;2023-06-22T16:01:24;17.88;;;5.05;;
18887;SDS011;9576;47.792;9.628;2023-06-22T16:04:26;29.30;;;4.97;;
18887;SDS011;9576;47.792;9.628;2023-06-22T16:07:28;23.67;;;4.68;;
18887;SDS011;9576;47.792;9.628;2023-06-22T16:10:30;15.07;;;4.50;;
18887;SDS011;9576;47.792;9.628;2023-06-22T16:13:33;26.08;;;5.30;;
18887;SDS011;9576;47.792;9.628;2023-06-22T16:16:35;17.55;;;4.53;;
18887;SDS011;9576;47.792;9.628;2023-06-22T16:19:37;17.92;;;4.82;;
18887;SDS011;9576;47.792;9.628;2023-06-22T16:22:39;16.95;;;5.13;;
18887;SDS011;9576;47.792;9.628;2023-06-22T16:25:42;10.57;;;4.47;;
18887;SDS011;9576;47.792;9.628;2023-06-22T16:28:45;14.77;;;4.07;;
18887;SDS011;9576;47.792;9.628;2023-06-22T16:31:47;14.10;;;3.88;;
18887;SDS011;9576;47.792;9.628;2023-06-22T16:34:49;16.33;;;3.85;;
18887;SDS011;9576;47.792;9.628;2023-06-22T16:37:52;12.82;;;4.65;;
18887;SDS011;9576;47.792;9.628;2023-06-22T16:40:54;31.03;;;4.50;;
18887;SDS011;9576;47.792;9.628;2023-06-22T16:43:57;29.83;;;5.15;;
18887;SDS011;9576;47.792;9.628;2023-06-22T16:47:05;16.92;;;4.50;;
18887;SDS011;9576;47.792;9.628;2023-06-22T16:50:08;31.23;;;4.20;;
18887;SDS011;9576;47.792;9.628;2023-06-22T16:53:11;19.13;;;5.20;;
18887;SDS011;9576;47.792;9.628;2023-06-22T16:56:13;16.92;;;4.60;;
18887;SDS011;9576;47.792;9.628;2023-06-22T16:59:16;18.67;;;5.20;;
18887;SDS011;9576;47.792;9.628;2023-06-22T17:02:19;18.05;;;4.45;;
18887;SDS011;9576;47.792;9.628;2023-06-22T17:05:23;14.07;;;4.70;;
18887;SDS011;9576;47.792;9.628;2023-06-22T17:11:31;16.42;;;4.38;;
18887;SDS011;9576;47.792;9.628;2023-06-22T17:14:34;15.90;;;4.57;;
18887;SDS011;9576;47.792;9.628;2023-06-22T17:17:40;17.85;;;5.00;;
18887;SDS011;9576;47.792;9.628;2023-06-22T17:20:44;13.10;;;3.97;;
18887;SDS011;9576;47.792;9.628;2023-06-22T17:23:45;14.80;;;6.20;;
18887;SDS011;9576;47.792;9.628;2023-06-22T17:26:48;15.30;;;4.40;;
18887;SDS011;9576;47.792;9.628;2023-06-22T17:33:18;22.10;;;4.35;;
18887;SDS011;9576;47.792;9.628;2023-06-22T17:36:21;19.38;;;4.88;;
18887;SDS011;9576;47.792;9.628;2023-06-22T17:39:23;29.75;;;5.05;;
18887;SDS011;9576;47.792;9.628;2023-06-22T17:42:26;23.80;;;5.47;;
18887;SDS011;9576;47.792;9.628;2023-06-22T17:45:30;19.38;;;4.82;;
18887;SDS011;9576;47.792;9.628;2023-06-22T17:48:32;28.80;;;5.05;;
18887;SDS011;9576;47.792;9.628;2023-06-22T17:51:34;17.50;;;5.60;;
18887;SDS011;9576;47.792;9.628;2023-06-22T17:54:37;31.67;;;5.53;;
18887;SDS011;9576;47.792;9.628;2023-06-22T17:57:40;18.08;;;5.47;;
18887;SDS011;9576;47.792;9.628;2023-06-22T18:00:47;26.80;;;5.53;;
18887;SDS011;9576;47.792;9.628;2023-06-22T18:03:49;30.30;;;5.57;;
18887;SDS011;9576;47.792;9.628;2023-06-22T18:06:51;35.50;;;5.93;;
18887;SDS011;9576;47.792;9.628;2023-06-22T18:09:55;20.45;;;5.93;;
18887;SDS011;9576;47.792;9.628;2023-06-22T18:13:00;25.58;;;4.82;;
18887;SDS011;9576;47.792;9.628;2023-06-22T18:16:05;22.15;;;5.60;;
18887;SDS011;9576;47.792;9.628;2023-06-22T18:19:07;22.75;;;5.68;;
18887;SDS011;9576;47.792;9.628;2023-06-22T18:22:10;18.52;;;4.93;;
18887;SDS011;9576;47.792;9.628;2023-06-22T18:25:12;15.45;;;5.78;;
18887;SDS011;9576;47.792;9.628;2023-06-22T18:28:16;16.77;;;5.18;;